createdAt,value
2022-07-25T00:01:08.779Z,100.00
2022-07-25T00:03:37.784Z,100.00
2022-07-25T00:06:07.926Z,100.00
2022-07-25T00:08:42.981Z,100.00
2022-07-25T00:11:10.313Z,100.00
2022-07-25T00:13:37.538Z,100.00
2022-07-25T00:16:07.779Z,100.00
2022-07-25T00:18:37.989Z,100.00
2022-07-25T00:21:05.579Z,100.00
2022-07-25T00:23:35.140Z,100.00
2022-07-25T00:26:08.273Z,100.00
2022-07-25T00:28:40.503Z,100.00
2022-07-25T00:31:07.788Z,100.00
2022-07-25T00:33:36.424Z,100.00
2022-07-25T00:36:05.047Z,100.00
2022-07-25T00:38:32.398Z,100.00
2022-07-25T00:40:59.823Z,100.00
2022-07-25T00:43:27.075Z,100.00
2022-07-25T00:45:54.321Z,100.00
2022-07-25T00:48:21.647Z,100.00
2022-07-25T00:50:51.336Z,100.00
2022-07-25T00:53:19.196Z,100.00
2022-07-25T00:55:50.097Z,100.00
2022-07-25T00:58:20.256Z,100.00
2022-07-25T01:00:50.247Z,100.00
2022-07-25T01:03:18.260Z,100.00
2022-07-25T01:05:48.993Z,100.00
2022-07-25T01:08:20.845Z,100.00
2022-07-25T01:10:52.367Z,100.00
2022-07-25T01:13:20.902Z,100.00
2022-07-25T01:15:50.807Z,100.00
2022-07-25T01:18:20.427Z,100.00
2022-07-25T01:20:50.156Z,100.00
2022-07-25T01:23:20.541Z,100.00
2022-07-25T01:25:50.022Z,100.00
2022-07-25T01:28:18.340Z,100.00
2022-07-25T01:30:45.661Z,100.00
2022-07-25T01:33:21.460Z,100.00
2022-07-25T01:35:52.704Z,100.00
2022-07-25T01:38:22.434Z,100.00
2022-07-25T01:40:54.588Z,100.00
2022-07-25T01:43:24.107Z,100.00
2022-07-25T01:45:51.626Z,100.00
2022-07-25T01:48:18.946Z,100.00
2022-07-25T01:50:48.644Z,100.00
2022-07-25T01:53:16.607Z,100.00
2022-07-25T01:55:47.282Z,100.00
2022-07-25T01:58:14.846Z,100.00
2022-07-25T02:00:44.183Z,100.00
2022-07-25T02:03:30.120Z,100.00
2022-07-25T02:06:03.143Z,100.00
2022-07-25T02:08:31.121Z,100.00
2022-07-25T02:11:00.414Z,100.00
2022-07-25T02:13:30.286Z,100.00
2022-07-25T02:15:57.626Z,100.00
2022-07-25T02:18:25.036Z,100.00
2022-07-25T02:20:52.656Z,100.00
2022-07-25T02:23:22.513Z,100.00
2022-07-25T02:25:49.666Z,100.00
2022-07-25T02:28:17.390Z,100.00
2022-07-25T02:30:44.649Z,100.00
2022-07-25T02:33:13.358Z,100.00
2022-07-25T02:35:42.939Z,100.00
2022-07-25T02:38:19.616Z,100.00
2022-07-25T02:40:52.300Z,100.00
2022-07-25T02:43:20.233Z,100.00
2022-07-25T02:45:50.244Z,100.00
2022-07-25T02:48:17.723Z,100.00
2022-07-25T02:50:47.502Z,100.00
2022-07-25T02:53:15.121Z,100.00
2022-07-25T02:55:46.228Z,100.00
2022-07-25T02:58:16.410Z,100.00
2022-07-25T03:00:44.700Z,100.00
2022-07-25T03:03:12.971Z,100.00
2022-07-25T03:05:40.178Z,100.00
2022-07-25T03:08:08.766Z,100.00
2022-07-25T03:10:36.430Z,100.00
2022-07-25T03:13:03.820Z,100.00
2022-07-25T03:15:33.361Z,100.00
2022-07-25T03:18:03.206Z,100.00
2022-07-25T03:20:30.656Z,100.00
2022-07-25T03:23:00.505Z,100.00
2022-07-25T03:25:27.682Z,100.00
2022-07-25T03:27:56.333Z,100.00
2022-07-25T03:30:23.694Z,100.00
2022-07-25T03:32:51.120Z,100.00
2022-07-25T03:35:24.324Z,100.00
2022-07-25T03:37:52.108Z,100.00
2022-07-25T03:40:22.629Z,100.00
2022-07-25T03:42:49.943Z,100.00
2022-07-25T03:45:17.885Z,100.00
2022-07-25T03:47:47.414Z,100.00
2022-07-25T03:50:14.862Z,100.00
2022-07-25T03:52:42.439Z,100.00
2022-07-25T03:55:11.113Z,100.00
2022-07-25T03:57:39.142Z,100.00
2022-07-25T04:00:10.369Z,100.00
2022-07-25T04:02:38.425Z,100.00
2022-07-25T04:05:07.497Z,100.00
2022-07-25T04:07:44.351Z,100.00
2022-07-25T04:10:15.148Z,100.00
2022-07-25T04:12:45.582Z,100.00
2022-07-25T04:15:13.684Z,100.00
2022-07-25T04:17:41.037Z,100.00
2022-07-25T04:20:08.980Z,100.00
2022-07-25T04:22:46.777Z,100.00
2022-07-25T04:25:17.962Z,100.00
2022-07-25T04:27:48.664Z,100.00
2022-07-25T04:30:24.101Z,100.00
2022-07-25T04:32:57.419Z,100.00
2022-07-25T04:35:27.828Z,100.00
2022-07-25T04:37:57.265Z,100.00
2022-07-25T04:40:29.410Z,100.00
2022-07-25T04:42:59.026Z,100.00
2022-07-25T04:45:34.752Z,100.00
2022-07-25T04:48:06.827Z,100.00
2022-07-25T04:50:35.439Z,100.00
2022-07-25T04:53:06.271Z,100.00
2022-07-25T04:55:36.907Z,100.00
2022-07-25T04:58:08.789Z,100.00
2022-07-25T05:00:43.140Z,100.00
2022-07-25T05:03:14.477Z,100.00
2022-07-25T05:05:44.621Z,100.00
2022-07-25T05:08:12.039Z,100.00
2022-07-25T05:10:43.056Z,100.00
2022-07-25T05:13:10.285Z,100.00
2022-07-25T05:18:32.812Z,100.00
2022-07-25T05:21:03.114Z,100.00
2022-07-25T05:23:36.294Z,100.00
2022-07-25T05:26:08.155Z,100.00
2022-07-25T05:28:42.821Z,100.00
2022-07-25T05:31:16.427Z,100.00
2022-07-25T05:33:45.287Z,100.00
2022-07-25T05:36:12.531Z,100.00
2022-07-25T05:38:41.651Z,100.00
2022-07-25T05:41:11.068Z,100.00
2022-07-25T05:43:48.354Z,100.00
2022-07-25T05:46:22.704Z,100.00
2022-07-25T05:49:03.473Z,100.00
2022-07-25T05:51:41.850Z,100.00
2022-07-25T05:54:14.406Z,100.00
2022-07-25T05:56:49.901Z,100.00
2022-07-25T05:59:30.341Z,100.00
2022-07-25T06:02:05.492Z,100.00
2022-07-25T06:04:35.726Z,100.00
2022-07-25T06:07:07.561Z,100.00
2022-07-25T06:09:47.864Z,100.00
2022-07-25T06:12:24.313Z,100.00
2022-07-25T06:14:55.964Z,100.00
2022-07-25T06:17:35.541Z,100.00
2022-07-25T06:20:04.433Z,100.00
2022-07-25T06:22:32.347Z,100.00
2022-07-25T06:25:13.349Z,100.00
2022-07-25T06:27:49.383Z,100.00
2022-07-25T06:30:20.451Z,100.00
2022-07-25T06:32:50.049Z,100.00
2022-07-25T06:35:23.810Z,100.00
2022-07-25T06:37:59.698Z,100.00
2022-07-25T06:41:04.355Z,100.00
2022-07-25T06:43:32.262Z,100.00
2022-07-25T06:46:02.837Z,100.00
2022-07-25T06:48:37.450Z,100.00
2022-07-25T06:51:12.020Z,100.00
2022-07-25T06:53:56.691Z,100.00
2022-07-25T06:56:24.391Z,100.00
2022-07-25T06:58:57.473Z,100.00
2022-07-25T07:01:28.162Z,100.00
2022-07-25T07:03:56.840Z,100.00
2022-07-25T07:06:26.823Z,100.00
2022-07-25T07:08:54.079Z,100.00
2022-07-25T07:11:24.549Z,100.00
2022-07-25T07:13:51.943Z,100.00
2022-07-25T07:16:19.436Z,100.00
2022-07-25T07:18:49.722Z,100.00
2022-07-25T07:21:21.324Z,100.00
2022-07-25T07:23:49.732Z,100.00
2022-07-25T07:26:24.945Z,100.00
2022-07-25T07:28:58.100Z,100.00
2022-07-25T07:31:31.442Z,100.00
2022-07-25T07:33:59.703Z,100.00
2022-07-25T07:36:27.305Z,100.00
2022-07-25T07:38:58.604Z,100.00
2022-07-25T07:41:26.254Z,100.00
2022-07-25T07:43:54.884Z,100.00
2022-07-25T07:46:22.344Z,100.00
2022-07-25T07:48:52.355Z,100.00
2022-07-25T07:51:24.789Z,100.00
2022-07-25T07:54:11.970Z,100.00
2022-07-25T07:56:45.789Z,100.00
2022-07-25T07:59:16.008Z,100.00
2022-07-25T08:01:43.317Z,100.00
2022-07-25T08:04:12.827Z,100.00
2022-07-25T08:06:40.669Z,100.00
2022-07-25T08:09:08.810Z,100.00
2022-07-25T08:11:36.315Z,100.00
2022-07-25T08:14:09.604Z,100.00
2022-07-25T08:16:39.348Z,100.00
2022-07-25T08:19:12.581Z,100.00
2022-07-25T08:21:42.563Z,100.00
2022-07-25T08:24:15.522Z,100.00
2022-07-25T08:26:45.461Z,100.00
2022-07-25T08:29:25.043Z,100.00
2022-07-25T08:31:58.227Z,100.00
2022-07-25T08:34:25.561Z,100.00
2022-07-25T08:36:55.654Z,100.00
2022-07-25T08:39:28.900Z,100.00
2022-07-25T08:41:56.612Z,100.00
2022-07-25T08:44:30.971Z,100.00
2022-07-25T08:47:03.219Z,100.00
2022-07-25T08:49:30.581Z,100.00
2022-07-25T08:51:58.228Z,100.00
2022-07-25T08:54:25.983Z,100.00
2022-07-25T08:56:55.493Z,100.00
2022-07-25T08:59:22.977Z,100.00
2022-07-25T09:01:51.184Z,100.00
2022-07-25T09:04:20.227Z,100.00
2022-07-25T09:06:54.516Z,100.00
2022-07-25T09:09:41.510Z,100.00
2022-07-25T09:12:09.241Z,100.00
2022-07-25T09:14:48.914Z,100.00
2022-07-25T09:17:22.228Z,100.00
2022-07-25T09:19:56.114Z,100.00
2022-07-25T09:22:34.935Z,100.00
2022-07-25T09:25:04.101Z,100.00
2022-07-25T09:27:35.163Z,100.00
2022-07-25T09:30:16.337Z,100.00
2022-07-25T09:32:46.470Z,100.00
2022-07-25T09:35:41.055Z,100.00
2022-07-25T09:38:19.367Z,100.00
2022-07-25T09:41:01.651Z,100.00
2022-07-25T09:43:59.220Z,100.00
2022-07-25T09:46:34.135Z,100.00
2022-07-25T09:49:09.861Z,100.00
2022-07-25T09:51:42.243Z,100.00
2022-07-25T09:54:11.812Z,100.00
2022-07-25T09:56:39.413Z,100.00
2022-07-25T09:59:11.001Z,100.00
2022-07-25T10:01:52.455Z,100.00
2022-07-25T10:04:25.037Z,100.00
2022-07-25T10:07:30.924Z,100.00
2022-07-25T10:10:02.839Z,100.00
2022-07-25T10:12:37.304Z,100.00
2022-07-25T10:15:12.676Z,100.00
2022-07-25T10:17:47.455Z,100.00
2022-07-25T10:20:18.496Z,100.00
2022-07-25T10:22:57.595Z,100.00
2022-07-25T10:25:28.398Z,100.00
2022-07-25T10:28:04.840Z,100.00
2022-07-25T10:30:45.182Z,100.00
2022-07-25T10:33:28.644Z,100.00
2022-07-25T10:36:08.986Z,100.00
2022-07-25T10:38:42.540Z,100.00
2022-07-25T10:41:13.220Z,100.00
2022-07-25T10:43:48.183Z,100.00
2022-07-25T10:46:28.852Z,100.00
2022-07-25T10:49:09.054Z,100.00
2022-07-25T10:51:42.822Z,100.00
2022-07-25T10:54:20.744Z,100.00
2022-07-25T10:57:05.605Z,100.00
2022-07-25T10:59:37.068Z,100.00
2022-07-25T11:02:10.731Z,100.00
2022-07-25T11:04:52.386Z,100.00
2022-07-25T11:07:23.164Z,100.00
2022-07-25T11:09:59.632Z,100.00
2022-07-25T11:12:27.859Z,100.00
2022-07-25T11:15:14.467Z,100.00
2022-07-25T11:17:54.072Z,100.00
2022-07-25T11:20:25.221Z,100.00
2022-07-25T11:22:57.994Z,100.00
2022-07-25T11:25:28.247Z,100.00
2022-07-25T11:28:05.220Z,100.00
2022-07-25T11:30:40.306Z,100.00
2022-07-25T11:33:08.235Z,100.00
2022-07-25T12:15:15.225Z,100.00
2022-07-25T12:17:43.584Z,100.00
2022-07-25T12:20:16.072Z,100.00
2022-07-25T12:22:46.957Z,100.00
2022-07-25T12:25:14.952Z,100.00
2022-07-25T12:27:44.857Z,100.00
2022-07-25T12:30:15.416Z,100.00
2022-07-25T12:32:47.661Z,100.00
2022-07-25T12:35:15.281Z,100.00
2022-07-25T12:37:43.523Z,100.00
2022-07-25T12:40:13.534Z,100.00
2022-07-25T12:42:41.372Z,100.00
2022-07-25T12:45:09.439Z,100.00
2022-07-25T12:47:39.639Z,100.00
2022-07-25T12:50:08.349Z,100.00
2022-07-25T12:52:36.007Z,100.00
2022-07-25T12:55:07.523Z,100.00
2022-07-25T12:57:36.692Z,100.00
2022-07-25T13:00:07.482Z,100.00
2022-07-25T13:02:35.291Z,100.00
2022-07-25T13:05:03.914Z,100.00
2022-07-25T13:07:32.721Z,100.00
2022-07-25T13:10:00.748Z,100.00
2022-07-25T13:12:30.530Z,100.00
2022-07-25T13:15:00.464Z,100.00
2022-07-25T13:17:28.164Z,100.00
2022-07-25T13:19:56.567Z,100.00
2022-07-25T13:22:26.958Z,100.00
2022-07-25T13:24:54.341Z,100.00
2022-07-25T13:27:23.319Z,100.00
2022-07-25T13:29:54.538Z,100.00
2022-07-25T13:32:26.462Z,100.00
2022-07-25T13:34:54.197Z,100.00
2022-07-25T13:37:25.566Z,100.00
2022-07-25T13:39:52.808Z,100.00
2022-07-25T13:42:20.531Z,100.00
2022-07-25T13:44:47.677Z,100.00
2022-07-25T13:47:16.049Z,100.00
2022-07-25T13:49:43.562Z,100.00
2022-07-25T13:52:13.839Z,100.00
2022-07-25T13:54:41.408Z,100.00
2022-07-25T13:57:17.056Z,100.00
2022-07-25T13:59:44.228Z,100.00
2022-07-25T14:02:15.826Z,100.00
2022-07-25T14:04:47.659Z,100.00
2022-07-25T14:07:17.314Z,100.00
2022-07-25T14:09:45.114Z,100.00
2022-07-25T14:12:12.360Z,100.00
2022-07-25T14:14:45.556Z,100.00
2022-07-25T14:17:12.891Z,100.00
2022-07-25T14:19:42.810Z,100.00
2022-07-25T14:22:10.055Z,100.00
2022-07-25T14:24:39.824Z,100.00
2022-07-25T14:27:07.196Z,100.00
2022-07-25T14:29:34.652Z,100.00
2022-07-25T14:32:07.970Z,100.00
2022-07-25T14:34:35.640Z,100.00
2022-07-25T14:37:03.376Z,99.86
2022-07-25T14:39:30.572Z,98.89
2022-07-25T14:41:59.736Z,97.71
2022-07-25T14:44:28.647Z,97.22
2022-07-25T14:46:57.441Z,96.28
2022-07-25T14:49:25.581Z,95.61
2022-07-25T14:51:52.792Z,95.22
2022-07-25T14:54:31.405Z,95.04
2022-07-25T14:57:01.267Z,94.55
2022-07-25T14:59:28.889Z,94.24
2022-07-25T15:01:56.823Z,93.47
2022-07-25T15:04:27.221Z,93.05
2022-07-25T15:06:54.989Z,92.73
2022-07-25T15:09:22.503Z,94.61
2022-07-25T15:11:51.078Z,97.09
2022-07-25T15:14:19.282Z,99.07
2022-07-25T15:16:49.806Z,100.00
2022-07-25T15:19:22.088Z,100.00
2022-07-25T15:21:53.915Z,100.00
2022-07-25T15:24:29.266Z,100.00
2022-07-25T15:27:12.094Z,100.00
2022-07-25T15:29:51.720Z,100.00
2022-07-25T15:32:25.854Z,100.00
2022-07-25T15:35:02.845Z,100.00
2022-07-25T15:37:30.484Z,100.00
2022-07-25T15:40:02.132Z,100.00
2022-07-25T15:42:34.930Z,100.00
2022-07-25T15:48:00.047Z,100.00
2022-07-25T15:50:30.047Z,100.00
2022-07-25T15:53:07.095Z,100.00
2022-07-25T15:55:40.062Z,100.00
2022-07-25T15:58:15.828Z,100.00
2022-07-25T16:00:43.472Z,100.00
2022-07-25T16:03:17.378Z,100.00
2022-07-25T16:05:45.041Z,100.00
2022-07-25T16:08:12.691Z,100.00
2022-07-25T16:10:40.553Z,100.00
2022-07-25T16:13:13.524Z,100.00
2022-07-25T16:15:42.487Z,100.00
2022-07-25T16:18:12.514Z,100.00
2022-07-25T16:20:40.634Z,100.00
2022-07-25T16:23:12.867Z,100.00
2022-07-25T16:25:43.654Z,100.00
2022-07-25T16:28:11.601Z,100.00
2022-07-25T16:30:39.118Z,100.00
2022-07-25T16:33:06.361Z,100.00
2022-07-25T16:35:33.655Z,100.00
2022-07-25T16:38:01.463Z,100.00
2022-07-25T16:40:30.836Z,100.00
2022-07-25T16:42:59.301Z,100.00
2022-07-25T16:45:29.504Z,100.00
2022-07-25T16:47:57.024Z,100.00
2022-07-25T16:50:26.759Z,100.00
2022-07-25T16:52:56.718Z,100.00
2022-07-25T16:55:26.710Z,100.00
2022-07-25T16:57:54.985Z,100.00
2022-07-25T17:00:22.279Z,100.00
2022-07-25T17:02:54.059Z,100.00
2022-07-25T17:05:23.907Z,100.00
2022-07-25T17:07:58.734Z,100.00
2022-07-25T17:10:28.317Z,100.00
2022-07-25T17:12:55.833Z,100.00
2022-07-25T17:15:25.770Z,100.00
2022-07-25T17:17:53.300Z,100.00
2022-07-25T17:20:20.601Z,100.00
2022-07-25T17:22:51.456Z,100.00
2022-07-25T17:25:18.822Z,100.00
2022-07-25T17:27:46.184Z,100.00
2022-07-25T17:30:15.734Z,100.00
2022-07-25T17:32:48.606Z,100.00
2022-07-25T17:35:16.182Z,100.00
2022-07-25T17:37:46.458Z,100.00
2022-07-25T17:40:13.817Z,100.00
2022-07-25T17:42:45.359Z,100.00
2022-07-25T17:45:13.912Z,100.00
2022-07-25T17:47:43.315Z,100.00
2022-07-25T17:50:11.432Z,100.00
2022-07-25T17:52:38.997Z,100.00
2022-07-25T17:55:15.174Z,100.00
2022-07-25T17:57:42.565Z,100.00
2022-07-25T18:00:15.278Z,100.00
2022-07-25T18:02:42.702Z,100.00
2022-07-25T18:05:09.936Z,100.00
2022-07-25T18:07:50.595Z,100.00
2022-07-25T18:10:21.946Z,100.00
2022-07-25T18:12:53.185Z,100.00
2022-07-25T18:15:20.724Z,100.00
2022-07-25T18:17:48.445Z,100.00
2022-07-25T18:20:17.880Z,100.00
2022-07-25T18:22:47.723Z,100.00
2022-07-25T18:25:16.710Z,100.00
2022-07-25T18:27:46.621Z,100.00
2022-07-25T18:30:17.694Z,100.00
2022-07-25T18:32:45.798Z,100.00
2022-07-25T18:35:17.068Z,100.00
2022-07-25T18:37:47.130Z,100.00
2022-07-25T18:40:16.868Z,100.00
2022-07-25T18:42:44.527Z,100.00
2022-07-25T18:45:12.809Z,100.00
2022-07-25T18:47:40.277Z,100.00
2022-07-25T18:50:08.092Z,100.00
2022-07-25T18:52:38.476Z,100.00
2022-07-25T18:55:08.774Z,100.00
2022-07-25T18:57:36.467Z,100.00
2022-07-25T19:00:09.149Z,100.00
2022-07-25T19:02:36.875Z,100.00
2022-07-25T19:05:04.427Z,100.00
2022-07-25T19:07:36.219Z,100.00
2022-07-25T19:10:06.379Z,100.00
2022-07-25T19:12:33.596Z,100.00
2022-07-25T19:15:03.345Z,100.00
2022-07-25T19:17:32.747Z,100.00
2022-07-25T19:20:00.928Z,100.00
2022-07-25T19:22:28.193Z,100.00
2022-07-25T19:24:57.667Z,100.00
2022-07-25T19:27:26.873Z,100.00
2022-07-25T19:29:56.573Z,100.00
2022-07-25T19:32:23.853Z,100.00
2022-07-25T19:34:51.579Z,100.00
2022-07-25T19:37:18.741Z,100.00
2022-07-25T19:39:47.679Z,100.00
2022-07-25T19:42:15.549Z,100.00
2022-07-25T19:44:42.952Z,100.00
2022-07-25T19:47:13.009Z,100.00
2022-07-25T19:49:43.469Z,100.00
2022-07-25T19:52:13.819Z,100.00
2022-07-25T19:54:41.242Z,100.00
2022-07-25T19:57:09.040Z,100.00
2022-07-25T19:59:41.262Z,100.00
2022-07-25T20:02:08.663Z,100.00
2022-07-25T20:04:37.611Z,100.00
2022-07-25T20:07:05.546Z,100.00
2022-07-25T20:09:33.811Z,100.00
2022-07-25T20:12:03.171Z,100.00
2022-07-25T20:14:30.354Z,100.00
2022-07-25T20:17:00.090Z,100.00
2022-07-25T20:19:28.802Z,100.00
2022-07-25T20:21:56.752Z,100.00
2022-07-25T20:24:26.768Z,100.00
2022-07-25T20:26:54.011Z,100.00
2022-07-25T20:29:21.415Z,100.00
2022-07-25T20:31:48.593Z,100.00
2022-07-25T20:34:16.107Z,100.00
2022-07-25T20:36:47.126Z,100.00
2022-07-25T20:39:14.626Z,100.00
2022-07-25T20:41:42.045Z,100.00
2022-07-25T20:44:15.162Z,100.00
2022-07-25T20:46:42.408Z,100.00
2022-07-25T20:49:13.875Z,100.00
2022-07-25T20:51:41.662Z,100.00
2022-07-25T20:54:12.714Z,100.00
2022-07-25T20:56:43.050Z,100.00
2022-07-25T20:59:11.479Z,100.00
2022-07-25T21:01:39.387Z,100.00
2022-07-25T21:04:07.989Z,100.00
2022-07-25T21:06:35.645Z,100.00
2022-07-25T21:09:06.090Z,100.00
2022-07-25T21:11:39.578Z,100.00
2022-07-25T21:14:09.656Z,100.00
2022-07-25T21:16:40.233Z,100.00
2022-07-25T21:19:08.201Z,100.00
2022-07-25T21:21:40.285Z,100.00
2022-07-25T21:24:09.324Z,100.00
2022-07-25T21:26:39.445Z,100.00
2022-07-25T21:29:07.371Z,100.00
2022-07-25T21:31:35.186Z,100.00
2022-07-25T21:34:05.181Z,100.00
2022-07-25T21:36:36.233Z,100.00
2022-07-25T21:39:06.346Z,100.00
2022-07-25T21:41:36.031Z,100.00
2022-07-25T21:44:03.386Z,100.00
2022-07-25T21:46:33.764Z,100.00
2022-07-25T21:49:40.797Z,100.00
2022-07-25T21:52:13.553Z,100.00
2022-07-25T21:54:45.267Z,100.00
2022-07-25T21:57:15.264Z,100.00
2022-07-25T21:59:43.146Z,100.00
2022-07-25T22:02:11.587Z,100.00
2022-07-25T22:04:39.217Z,100.00
2022-07-25T22:07:08.761Z,100.00
2022-07-25T22:09:38.837Z,100.00
2022-07-25T22:12:06.838Z,100.00
2022-07-25T22:14:37.611Z,100.00
2022-07-25T22:17:07.571Z,100.00
2022-07-25T22:19:35.487Z,100.00
2022-07-25T22:22:06.185Z,100.00
2022-07-25T22:24:33.784Z,100.00
2022-07-25T22:27:01.200Z,100.00
2022-07-25T22:29:28.410Z,100.00
2022-07-25T22:31:59.128Z,100.00
2022-07-25T22:34:30.060Z,100.00
2022-07-25T22:37:01.209Z,100.00
2022-07-25T22:39:28.424Z,100.00
2022-07-25T22:41:55.766Z,100.00
2022-07-25T22:44:25.233Z,100.00
2022-07-25T22:46:52.705Z,100.00
2022-07-25T22:49:23.268Z,100.00
2022-07-25T22:51:51.167Z,100.00
2022-07-25T22:54:18.391Z,100.00
2022-07-25T22:56:45.589Z,100.00
2022-07-25T22:59:12.990Z,100.00
2022-07-25T23:01:40.552Z,100.00
2022-07-25T23:04:11.157Z,100.00
2022-07-25T23:06:40.754Z,100.00
2022-07-25T23:09:10.323Z,100.00
2022-07-25T23:11:37.931Z,100.00
2022-07-25T23:14:05.378Z,100.00
2022-07-25T23:16:36.723Z,100.00
2022-07-25T23:19:03.995Z,100.00
2022-07-25T23:21:31.483Z,100.00
2022-07-25T23:24:01.195Z,100.00
2022-07-25T23:26:33.416Z,100.00
2022-07-25T23:29:01.573Z,100.00
2022-07-25T23:31:29.093Z,100.00
2022-07-25T23:33:56.409Z,100.00
2022-07-25T23:36:23.599Z,100.00
2022-07-25T23:38:52.391Z,100.00
2022-07-25T23:41:22.010Z,100.00
2022-07-25T23:43:57.414Z,100.00
2022-07-25T23:46:30.975Z,100.00
2022-07-25T23:48:59.594Z,100.00
2022-07-25T23:51:27.048Z,100.00
2022-07-25T23:53:54.327Z,100.00
2022-07-25T23:56:21.659Z,100.00
2022-07-25T23:58:51.174Z,100.00
